sensor_id;sensor_type;location;lat;lon;timestamp;P1;durP1;ratioP1;P2;durP2;ratioP2
22289;SDS011;11313;50.116;8.424;2023-12-20T00:01:18;1.33;;;1.00;;
22289;SDS011;11313;50.116;8.424;2023-12-20T00:03:43;1.00;;;1.00;;
22289;SDS011;11313;50.116;8.424;2023-12-20T00:06:09;2.05;;;0.90;;
22289;SDS011;11313;50.116;8.424;2023-12-20T00:08:35;1.00;;;1.00;;
22289;SDS011;11313;50.116;8.424;2023-12-20T00:11:01;0.75;;;0.75;;
22289;SDS011;11313;50.116;8.424;2023-12-20T00:13:26;0.75;;;0.75;;
22289;SDS011;11313;50.116;8.424;2023-12-20T00:15:52;1.08;;;1.00;;
22289;SDS011;11313;50.116;8.424;2023-12-20T00:18:18;0.80;;;0.80;;
22289;SDS011;11313;50.116;8.424;2023-12-20T00:20:43;0.80;;;0.80;;
22289;SDS011;11313;50.116;8.424;2023-12-20T00:23:09;0.80;;;0.80;;
22289;SDS011;11313;50.116;8.424;2023-12-20T00:25:34;0.90;;;0.82;;
22289;SDS011;11313;50.116;8.424;2023-12-20T00:28:00;0.93;;;0.77;;
22289;SDS011;11313;50.116;8.424;2023-12-20T00:30:27;1.08;;;0.98;;
22289;SDS011;11313;50.116;8.424;2023-12-20T00:32:52;0.80;;;0.80;;
22289;SDS011;11313;50.116;8.424;2023-12-20T00:35:18;0.88;;;0.88;;
22289;SDS011;11313;50.116;8.424;2023-12-20T00:37:43;0.77;;;0.77;;
22289;SDS011;11313;50.116;8.424;2023-12-20T00:40:09;0.80;;;0.80;;
22289;SDS011;11313;50.116;8.424;2023-12-20T00:42:35;0.80;;;0.80;;
22289;SDS011;11313;50.116;8.424;2023-12-20T00:45:01;0.80;;;0.80;;
22289;SDS011;11313;50.116;8.424;2023-12-20T00:47:27;0.85;;;0.85;;
22289;SDS011;11313;50.116;8.424;2023-12-20T00:49:53;0.70;;;0.70;;
22289;SDS011;11313;50.116;8.424;2023-12-20T00:52:18;0.73;;;0.73;;
22289;SDS011;11313;50.116;8.424;2023-12-20T00:54:44;0.75;;;0.75;;
22289;SDS011;11313;50.116;8.424;2023-12-20T00:57:10;0.70;;;0.70;;
22289;SDS011;11313;50.116;8.424;2023-12-20T00:59:36;0.80;;;0.80;;
22289;SDS011;11313;50.116;8.424;2023-12-20T01:02:01;0.60;;;0.60;;
22289;SDS011;11313;50.116;8.424;2023-12-20T01:04:27;0.80;;;0.80;;
22289;SDS011;11313;50.116;8.424;2023-12-20T01:06:52;0.80;;;0.80;;
22289;SDS011;11313;50.116;8.424;2023-12-20T01:09:18;0.73;;;0.73;;
22289;SDS011;11313;50.116;8.424;2023-12-20T01:11:44;0.95;;;0.80;;
22289;SDS011;11313;50.116;8.424;2023-12-20T01:14:11;1.00;;;0.90;;
22289;SDS011;11313;50.116;8.424;2023-12-20T01:16:36;0.80;;;0.80;;
22289;SDS011;11313;50.116;8.424;2023-12-20T01:19:02;0.90;;;0.90;;
22289;SDS011;11313;50.116;8.424;2023-12-20T01:21:27;0.80;;;0.80;;
22289;SDS011;11313;50.116;8.424;2023-12-20T01:23:53;1.02;;;0.82;;
22289;SDS011;11313;50.116;8.424;2023-12-20T01:26:18;0.80;;;0.80;;
22289;SDS011;11313;50.116;8.424;2023-12-20T01:28:44;0.68;;;0.68;;
22289;SDS011;11313;50.116;8.424;2023-12-20T01:31:09;0.60;;;0.60;;
22289;SDS011;11313;50.116;8.424;2023-12-20T01:33:35;0.80;;;0.80;;
22289;SDS011;11313;50.116;8.424;2023-12-20T01:36:00;0.70;;;0.70;;
22289;SDS011;11313;50.116;8.424;2023-12-20T01:38:26;0.73;;;0.73;;
22289;SDS011;11313;50.116;8.424;2023-12-20T01:40:51;0.80;;;0.80;;
22289;SDS011;11313;50.116;8.424;2023-12-20T01:43:17;0.80;;;0.80;;
22289;SDS011;11313;50.116;8.424;2023-12-20T01:45:42;0.80;;;0.80;;
22289;SDS011;11313;50.116;8.424;2023-12-20T01:48:08;0.88;;;0.88;;
22289;SDS011;11313;50.116;8.424;2023-12-20T01:50:35;0.60;;;0.60;;
22289;SDS011;11313;50.116;8.424;2023-12-20T01:53:02;0.70;;;0.70;;
22289;SDS011;11313;50.116;8.424;2023-12-20T01:55:31;0.73;;;0.70;;
22289;SDS011;11313;50.116;8.424;2023-12-20T01:57:59;0.70;;;0.70;;
22289;SDS011;11313;50.116;8.424;2023-12-20T02:00:25;1.10;;;0.90;;
22289;SDS011;11313;50.116;8.424;2023-12-20T02:02:53;0.77;;;0.77;;
22289;SDS011;11313;50.116;8.424;2023-12-20T02:05:19;0.60;;;0.60;;
22289;SDS011;11313;50.116;8.424;2023-12-20T02:07:46;0.80;;;0.68;;
22289;SDS011;11313;50.116;8.424;2023-12-20T02:10:11;0.60;;;0.60;;
22289;SDS011;11313;50.116;8.424;2023-12-20T02:12:37;0.50;;;0.50;;
22289;SDS011;11313;50.116;8.424;2023-12-20T02:15:03;1.08;;;0.82;;
22289;SDS011;11313;50.116;8.424;2023-12-20T02:17:30;0.80;;;0.80;;
22289;SDS011;11313;50.116;8.424;2023-12-20T02:19:57;0.73;;;0.73;;
22289;SDS011;11313;50.116;8.424;2023-12-20T02:22:22;0.80;;;0.70;;
22289;SDS011;11313;50.116;8.424;2023-12-20T02:24:48;1.02;;;0.70;;
22289;SDS011;11313;50.116;8.424;2023-12-20T02:27:13;0.70;;;0.70;;
22289;SDS011;11313;50.116;8.424;2023-12-20T02:29:42;0.60;;;0.60;;
22289;SDS011;11313;50.116;8.424;2023-12-20T02:32:08;0.70;;;0.70;;
22289;SDS011;11313;50.116;8.424;2023-12-20T02:34:33;0.75;;;0.70;;
22289;SDS011;11313;50.116;8.424;2023-12-20T02:36:59;0.70;;;0.70;;
22289;SDS011;11313;50.116;8.424;2023-12-20T02:39:24;0.60;;;0.60;;
22289;SDS011;11313;50.116;8.424;2023-12-20T02:41:50;0.80;;;0.80;;
22289;SDS011;11313;50.116;8.424;2023-12-20T02:44:16;0.70;;;0.70;;
22289;SDS011;11313;50.116;8.424;2023-12-20T02:46:41;0.77;;;0.60;;
22289;SDS011;11313;50.116;8.424;2023-12-20T02:49:07;0.60;;;0.60;;
22289;SDS011;11313;50.116;8.424;2023-12-20T02:51:32;0.60;;;0.60;;
22289;SDS011;11313;50.116;8.424;2023-12-20T02:53:58;0.60;;;0.60;;
22289;SDS011;11313;50.116;8.424;2023-12-20T02:56:23;0.52;;;0.52;;
22289;SDS011;11313;50.116;8.424;2023-12-20T02:58:49;0.52;;;0.52;;
22289;SDS011;11313;50.116;8.424;2023-12-20T03:01:14;0.57;;;0.57;;
22289;SDS011;11313;50.116;8.424;2023-12-20T03:03:39;0.68;;;0.60;;
22289;SDS011;11313;50.116;8.424;2023-12-20T03:06:05;0.60;;;0.60;;
22289;SDS011;11313;50.116;8.424;2023-12-20T03:08:30;0.60;;;0.60;;
22289;SDS011;11313;50.116;8.424;2023-12-20T03:10:56;0.55;;;0.52;;
22289;SDS011;11313;50.116;8.424;2023-12-20T03:13:21;0.60;;;0.60;;
22289;SDS011;11313;50.116;8.424;2023-12-20T03:15:47;0.60;;;0.60;;
22289;SDS011;11313;50.116;8.424;2023-12-20T03:18:12;0.60;;;0.60;;
22289;SDS011;11313;50.116;8.424;2023-12-20T03:20:38;0.68;;;0.63;;
22289;SDS011;11313;50.116;8.424;2023-12-20T03:23:03;0.50;;;0.50;;
22289;SDS011;11313;50.116;8.424;2023-12-20T03:25:29;0.55;;;0.55;;
22289;SDS011;11313;50.116;8.424;2023-12-20T03:27:55;0.60;;;0.60;;
22289;SDS011;11313;50.116;8.424;2023-12-20T03:30:20;0.60;;;0.60;;
22289;SDS011;11313;50.116;8.424;2023-12-20T03:32:46;0.60;;;0.60;;
22289;SDS011;11313;50.116;8.424;2023-12-20T03:35:12;0.55;;;0.55;;
22289;SDS011;11313;50.116;8.424;2023-12-20T03:37:37;0.60;;;0.60;;
22289;SDS011;11313;50.116;8.424;2023-12-20T03:40:03;0.50;;;0.50;;
22289;SDS011;11313;50.116;8.424;2023-12-20T03:42:29;0.60;;;0.60;;
22289;SDS011;11313;50.116;8.424;2023-12-20T03:44:54;0.55;;;0.55;;
22289;SDS011;11313;50.116;8.424;2023-12-20T03:47:20;0.60;;;0.60;;
22289;SDS011;11313;50.116;8.424;2023-12-20T03:49:45;0.70;;;0.70;;
22289;SDS011;11313;50.116;8.424;2023-12-20T03:52:11;0.60;;;0.57;;
22289;SDS011;11313;50.116;8.424;2023-12-20T03:54:37;0.60;;;0.60;;
22289;SDS011;11313;50.116;8.424;2023-12-20T03:57:02;0.65;;;0.60;;
22289;SDS011;11313;50.116;8.424;2023-12-20T03:59:28;0.50;;;0.50;;
22289;SDS011;11313;50.116;8.424;2023-12-20T04:01:54;0.60;;;0.60;;
22289;SDS011;11313;50.116;8.424;2023-12-20T04:04:19;0.40;;;0.40;;
22289;SDS011;11313;50.116;8.424;2023-12-20T04:06:45;0.65;;;0.65;;
22289;SDS011;11313;50.116;8.424;2023-12-20T04:09:10;0.52;;;0.52;;
22289;SDS011;11313;50.116;8.424;2023-12-20T04:11:37;0.77;;;0.50;;
22289;SDS011;11313;50.116;8.424;2023-12-20T04:14:02;0.50;;;0.50;;
22289;SDS011;11313;50.116;8.424;2023-12-20T04:16:29;0.50;;;0.50;;
22289;SDS011;11313;50.116;8.424;2023-12-20T04:18:55;1.48;;;0.40;;
22289;SDS011;11313;50.116;8.424;2023-12-20T04:21:20;0.70;;;0.70;;
22289;SDS011;11313;50.116;8.424;2023-12-20T04:23:46;0.40;;;0.40;;
22289;SDS011;11313;50.116;8.424;2023-12-20T04:26:11;0.60;;;0.60;;
22289;SDS011;11313;50.116;8.424;2023-12-20T04:28:37;0.60;;;0.60;;
22289;SDS011;11313;50.116;8.424;2023-12-20T04:31:02;0.50;;;0.50;;
22289;SDS011;11313;50.116;8.424;2023-12-20T04:33:28;0.50;;;0.50;;
22289;SDS011;11313;50.116;8.424;2023-12-20T04:35:53;0.50;;;0.50;;
22289;SDS011;11313;50.116;8.424;2023-12-20T04:38:19;0.45;;;0.45;;
22289;SDS011;11313;50.116;8.424;2023-12-20T04:40:44;0.55;;;0.55;;
22289;SDS011;11313;50.116;8.424;2023-12-20T04:43:10;0.60;;;0.60;;
22289;SDS011;11313;50.116;8.424;2023-12-20T04:45:35;0.40;;;0.40;;
22289;SDS011;11313;50.116;8.424;2023-12-20T04:48:01;0.60;;;0.52;;
22289;SDS011;11313;50.116;8.424;2023-12-20T04:50:27;0.60;;;0.40;;
22289;SDS011;11313;50.116;8.424;2023-12-20T04:52:53;0.50;;;0.50;;
22289;SDS011;11313;50.116;8.424;2023-12-20T04:55:18;0.50;;;0.50;;
22289;SDS011;11313;50.116;8.424;2023-12-20T04:57:45;0.50;;;0.50;;
22289;SDS011;11313;50.116;8.424;2023-12-20T05:00:10;0.50;;;0.50;;
22289;SDS011;11313;50.116;8.424;2023-12-20T05:02:37;0.40;;;0.40;;
22289;SDS011;11313;50.116;8.424;2023-12-20T05:05:02;0.60;;;0.60;;
22289;SDS011;11313;50.116;8.424;2023-12-20T05:07:28;0.55;;;0.55;;
22289;SDS011;11313;50.116;8.424;2023-12-20T05:09:54;0.50;;;0.50;;
22289;SDS011;11313;50.116;8.424;2023-12-20T05:12:20;0.50;;;0.50;;
22289;SDS011;11313;50.116;8.424;2023-12-20T05:14:46;0.40;;;0.40;;
22289;SDS011;11313;50.116;8.424;2023-12-20T05:17:11;0.45;;;0.45;;
22289;SDS011;11313;50.116;8.424;2023-12-20T05:19:39;0.40;;;0.40;;
22289;SDS011;11313;50.116;8.424;2023-12-20T05:22:05;0.40;;;0.40;;
22289;SDS011;11313;50.116;8.424;2023-12-20T05:24:30;0.45;;;0.45;;
22289;SDS011;11313;50.116;8.424;2023-12-20T05:26:56;0.60;;;0.47;;
22289;SDS011;11313;50.116;8.424;2023-12-20T05:29:21;0.55;;;0.55;;
22289;SDS011;11313;50.116;8.424;2023-12-20T05:31:47;1.40;;;0.40;;
22289;SDS011;11313;50.116;8.424;2023-12-20T05:34:12;0.55;;;0.50;;
22289;SDS011;11313;50.116;8.424;2023-12-20T05:36:38;0.40;;;0.40;;
22289;SDS011;11313;50.116;8.424;2023-12-20T05:39:04;0.47;;;0.47;;
22289;SDS011;11313;50.116;8.424;2023-12-20T05:41:30;0.60;;;0.57;;
22289;SDS011;11313;50.116;8.424;2023-12-20T05:43:56;0.40;;;0.40;;
22289;SDS011;11313;50.116;8.424;2023-12-20T05:46:23;0.75;;;0.40;;
22289;SDS011;11313;50.116;8.424;2023-12-20T05:48:48;0.38;;;0.38;;
22289;SDS011;11313;50.116;8.424;2023-12-20T05:51:14;0.50;;;0.50;;
22289;SDS011;11313;50.116;8.424;2023-12-20T05:53:40;0.50;;;0.50;;
22289;SDS011;11313;50.116;8.424;2023-12-20T05:56:05;0.40;;;0.40;;
22289;SDS011;11313;50.116;8.424;2023-12-20T05:58:32;0.40;;;0.40;;
22289;SDS011;11313;50.116;8.424;2023-12-20T06:00:58;0.50;;;0.50;;
22289;SDS011;11313;50.116;8.424;2023-12-20T06:03:23;0.30;;;0.30;;
22289;SDS011;11313;50.116;8.424;2023-12-20T06:05:49;1.20;;;0.50;;
22289;SDS011;11313;50.116;8.424;2023-12-20T06:08:14;0.50;;;0.50;;
22289;SDS011;11313;50.116;8.424;2023-12-20T06:10:40;0.47;;;0.47;;
22289;SDS011;11313;50.116;8.424;2023-12-20T06:13:05;0.63;;;0.40;;
22289;SDS011;11313;50.116;8.424;2023-12-20T06:15:31;0.30;;;0.30;;
22289;SDS011;11313;50.116;8.424;2023-12-20T06:17:57;0.30;;;0.30;;
22289;SDS011;11313;50.116;8.424;2023-12-20T06:20:23;0.45;;;0.45;;
22289;SDS011;11313;50.116;8.424;2023-12-20T06:22:48;0.50;;;0.50;;
22289;SDS011;11313;50.116;8.424;2023-12-20T06:25:14;0.50;;;0.45;;
22289;SDS011;11313;50.116;8.424;2023-12-20T06:27:39;0.40;;;0.40;;
22289;SDS011;11313;50.116;8.424;2023-12-20T06:30:06;0.43;;;0.43;;
22289;SDS011;11313;50.116;8.424;2023-12-20T06:32:34;0.70;;;0.40;;
22289;SDS011;11313;50.116;8.424;2023-12-20T06:34:59;0.50;;;0.50;;
22289;SDS011;11313;50.116;8.424;2023-12-20T06:37:25;0.55;;;0.55;;
22289;SDS011;11313;50.116;8.424;2023-12-20T06:39:50;0.50;;;0.45;;
22289;SDS011;11313;50.116;8.424;2023-12-20T06:42:16;0.60;;;0.40;;
22289;SDS011;11313;50.116;8.424;2023-12-20T06:44:41;0.50;;;0.47;;
22289;SDS011;11313;50.116;8.424;2023-12-20T06:47:07;0.50;;;0.50;;
22289;SDS011;11313;50.116;8.424;2023-12-20T06:49:33;0.40;;;0.40;;
22289;SDS011;11313;50.116;8.424;2023-12-20T06:51:58;0.43;;;0.43;;
22289;SDS011;11313;50.116;8.424;2023-12-20T06:54:24;0.50;;;0.50;;
22289;SDS011;11313;50.116;8.424;2023-12-20T06:56:49;0.45;;;0.43;;
22289;SDS011;11313;50.116;8.424;2023-12-20T06:59:15;1.13;;;0.60;;
22289;SDS011;11313;50.116;8.424;2023-12-20T07:01:40;0.50;;;0.50;;
22289;SDS011;11313;50.116;8.424;2023-12-20T07:04:06;0.60;;;0.50;;
22289;SDS011;11313;50.116;8.424;2023-12-20T07:06:31;0.65;;;0.65;;
22289;SDS011;11313;50.116;8.424;2023-12-20T07:08:57;0.70;;;0.43;;
22289;SDS011;11313;50.116;8.424;2023-12-20T07:11:22;0.95;;;0.50;;
22289;SDS011;11313;50.116;8.424;2023-12-20T07:13:49;0.77;;;0.40;;
22289;SDS011;11313;50.116;8.424;2023-12-20T07:16:14;0.93;;;0.50;;
22289;SDS011;11313;50.116;8.424;2023-12-20T07:18:40;2.22;;;0.60;;
22289;SDS011;11313;50.116;8.424;2023-12-20T07:21:05;1.05;;;0.55;;
22289;SDS011;11313;50.116;8.424;2023-12-20T07:23:33;1.00;;;0.63;;
22289;SDS011;11313;50.116;8.424;2023-12-20T07:25:58;0.55;;;0.50;;
22289;SDS011;11313;50.116;8.424;2023-12-20T07:28:24;1.27;;;0.60;;
22289;SDS011;11313;50.116;8.424;2023-12-20T07:30:49;0.77;;;0.50;;
22289;SDS011;11313;50.116;8.424;2023-12-20T07:33:15;1.05;;;0.60;;
22289;SDS011;11313;50.116;8.424;2023-12-20T07:35:41;1.05;;;0.57;;
22289;SDS011;11313;50.116;8.424;2023-12-20T07:38:06;0.90;;;0.63;;
22289;SDS011;11313;50.116;8.424;2023-12-20T07:40:32;1.05;;;0.60;;
22289;SDS011;11313;50.116;8.424;2023-12-20T07:42:57;0.98;;;0.60;;
22289;SDS011;11313;50.116;8.424;2023-12-20T07:45:23;1.27;;;0.45;;
22289;SDS011;11313;50.116;8.424;2023-12-20T07:47:48;2.70;;;0.65;;
22289;SDS011;11313;50.116;8.424;2023-12-20T07:50:15;1.65;;;0.68;;
22289;SDS011;11313;50.116;8.424;2023-12-20T07:52:40;0.80;;;0.60;;
22289;SDS011;11313;50.116;8.424;2023-12-20T07:55:06;0.55;;;0.50;;
22289;SDS011;11313;50.116;8.424;2023-12-20T07:57:32;1.70;;;0.50;;
22289;SDS011;11313;50.116;8.424;2023-12-20T07:59:57;0.65;;;0.60;;
22289;SDS011;11313;50.116;8.424;2023-12-20T08:02:23;0.75;;;0.60;;
22289;SDS011;11313;50.116;8.424;2023-12-20T08:04:48;0.93;;;0.57;;
22289;SDS011;11313;50.116;8.424;2023-12-20T08:07:14;0.52;;;0.52;;
22289;SDS011;11313;50.116;8.424;2023-12-20T08:09:39;2.20;;;0.82;;
22289;SDS011;11313;50.116;8.424;2023-12-20T08:12:05;2.60;;;0.80;;
22289;SDS011;11313;50.116;8.424;2023-12-20T08:14:31;1.30;;;0.70;;
22289;SDS011;11313;50.116;8.424;2023-12-20T08:16:56;1.15;;;0.70;;
22289;SDS011;11313;50.116;8.424;2023-12-20T08:19:22;1.48;;;0.57;;
22289;SDS011;11313;50.116;8.424;2023-12-20T08:21:47;1.33;;;0.50;;
22289;SDS011;11313;50.116;8.424;2023-12-20T08:24:13;0.60;;;0.60;;
22289;SDS011;11313;50.116;8.424;2023-12-20T08:26:38;1.42;;;0.60;;
22289;SDS011;11313;50.116;8.424;2023-12-20T08:29:04;1.63;;;0.68;;
22289;SDS011;11313;50.116;8.424;2023-12-20T08:31:29;1.05;;;0.63;;
22289;SDS011;11313;50.116;8.424;2023-12-20T08:33:55;1.33;;;0.70;;
22289;SDS011;11313;50.116;8.424;2023-12-20T08:36:21;1.40;;;0.80;;
22289;SDS011;11313;50.116;8.424;2023-12-20T08:38:48;1.00;;;0.60;;
22289;SDS011;11313;50.116;8.424;2023-12-20T08:41:14;0.88;;;0.75;;
22289;SDS011;11313;50.116;8.424;2023-12-20T08:43:40;1.05;;;0.70;;
22289;SDS011;11313;50.116;8.424;2023-12-20T08:46:06;0.85;;;0.60;;
22289;SDS011;11313;50.116;8.424;2023-12-20T08:48:31;0.63;;;0.60;;
22289;SDS011;11313;50.116;8.424;2023-12-20T08:50:57;0.75;;;0.60;;
22289;SDS011;11313;50.116;8.424;2023-12-20T08:53:22;1.92;;;0.70;;
22289;SDS011;11313;50.116;8.424;2023-12-20T08:55:48;1.52;;;0.80;;
22289;SDS011;11313;50.116;8.424;2023-12-20T08:58:13;1.80;;;0.75;;
22289;SDS011;11313;50.116;8.424;2023-12-20T09:00:39;0.90;;;0.70;;
22289;SDS011;11313;50.116;8.424;2023-12-20T09:03:04;2.05;;;0.80;;
22289;SDS011;11313;50.116;8.424;2023-12-20T09:05:30;0.73;;;0.57;;
22289;SDS011;11313;50.116;8.424;2023-12-20T09:07:55;0.80;;;0.60;;
22289;SDS011;11313;50.116;8.424;2023-12-20T09:10:21;1.40;;;0.60;;
22289;SDS011;11313;50.116;8.424;2023-12-20T09:12:50;0.70;;;0.55;;
22289;SDS011;11313;50.116;8.424;2023-12-20T09:15:21;1.80;;;0.70;;
22289;SDS011;11313;50.116;8.424;2023-12-20T09:17:50;0.73;;;0.60;;
22289;SDS011;11313;50.116;8.424;2023-12-20T09:20:15;0.73;;;0.60;;
22289;SDS011;11313;50.116;8.424;2023-12-20T09:22:41;1.88;;;0.60;;
22289;SDS011;11313;50.116;8.424;2023-12-20T09:25:07;2.22;;;0.80;;
22289;SDS011;11313;50.116;8.424;2023-12-20T09:27:33;1.20;;;0.60;;
22289;SDS011;11313;50.116;8.424;2023-12-20T09:29:58;2.45;;;0.50;;
22289;SDS011;11313;50.116;8.424;2023-12-20T09:32:24;1.95;;;0.80;;
22289;SDS011;11313;50.116;8.424;2023-12-20T09:34:49;0.60;;;0.60;;
22289;SDS011;11313;50.116;8.424;2023-12-20T09:37:15;0.70;;;0.60;;
22289;SDS011;11313;50.116;8.424;2023-12-20T09:39:40;1.25;;;0.70;;
22289;SDS011;11313;50.116;8.424;2023-12-20T09:42:06;0.93;;;0.60;;
22289;SDS011;11313;50.116;8.424;2023-12-20T09:44:33;1.23;;;0.70;;
22289;SDS011;11313;50.116;8.424;2023-12-20T09:47:02;1.23;;;0.60;;
22289;SDS011;11313;50.116;8.424;2023-12-20T09:49:29;1.10;;;0.70;;
22289;SDS011;11313;50.116;8.424;2023-12-20T09:51:55;1.85;;;0.82;;
22289;SDS011;11313;50.116;8.424;2023-12-20T09:54:22;1.05;;;0.63;;
22289;SDS011;11313;50.116;8.424;2023-12-20T09:56:48;1.13;;;0.68;;
22289;SDS011;11313;50.116;8.424;2023-12-20T09:59:14;1.58;;;0.60;;
22289;SDS011;11313;50.116;8.424;2023-12-20T10:01:40;1.15;;;0.70;;
22289;SDS011;11313;50.116;8.424;2023-12-20T10:04:08;0.85;;;0.50;;
22289;SDS011;11313;50.116;8.424;2023-12-20T10:06:40;1.42;;;0.80;;
22289;SDS011;11313;50.116;8.424;2023-12-20T10:09:06;0.65;;;0.55;;
22289;SDS011;11313;50.116;8.424;2023-12-20T10:11:31;1.10;;;0.60;;
22289;SDS011;11313;50.116;8.424;2023-12-20T10:14:00;1.10;;;0.70;;
22289;SDS011;11313;50.116;8.424;2023-12-20T10:16:26;1.00;;;0.70;;
22289;SDS011;11313;50.116;8.424;2023-12-20T10:18:52;1.10;;;0.65;;
22289;SDS011;11313;50.116;8.424;2023-12-20T10:21:18;1.55;;;0.68;;
22289;SDS011;11313;50.116;8.424;2023-12-20T10:23:45;1.58;;;0.70;;
22289;SDS011;11313;50.116;8.424;2023-12-20T10:26:12;1.23;;;0.70;;
22289;SDS011;11313;50.116;8.424;2023-12-20T10:28:51;1.27;;;0.70;;
22289;SDS011;11313;50.116;8.424;2023-12-20T10:31:30;1.00;;;0.70;;
22289;SDS011;11313;50.116;8.424;2023-12-20T10:33:59;1.10;;;0.60;;
22289;SDS011;11313;50.116;8.424;2023-12-20T10:36:28;2.15;;;0.70;;
22289;SDS011;11313;50.116;8.424;2023-12-20T10:38:55;1.50;;;0.50;;
22289;SDS011;11313;50.116;8.424;2023-12-20T10:41:24;1.65;;;0.85;;
22289;SDS011;11313;50.116;8.424;2023-12-20T10:43:58;1.52;;;0.70;;
22289;SDS011;11313;50.116;8.424;2023-12-20T10:46:26;1.10;;;0.90;;
22289;SDS011;11313;50.116;8.424;2023-12-20T10:48:53;0.73;;;0.60;;
22289;SDS011;11313;50.116;8.424;2023-12-20T10:51:19;1.08;;;0.60;;
22289;SDS011;11313;50.116;8.424;2023-12-20T10:53:49;1.30;;;0.70;;
22289;SDS011;11313;50.116;8.424;2023-12-20T10:56:16;0.88;;;0.57;;
22289;SDS011;11313;50.116;8.424;2023-12-20T10:58:43;0.73;;;0.50;;
22289;SDS011;11313;50.116;8.424;2023-12-20T11:01:09;1.08;;;0.70;;
22289;SDS011;11313;50.116;8.424;2023-12-20T11:03:43;0.77;;;0.70;;
22289;SDS011;11313;50.116;8.424;2023-12-20T11:06:19;0.68;;;0.57;;
22289;SDS011;11313;50.116;8.424;2023-12-20T11:09:07;1.00;;;0.80;;
22289;SDS011;11313;50.116;8.424;2023-12-20T11:11:46;1.10;;;0.77;;
22289;SDS011;11313;50.116;8.424;2023-12-20T11:14:19;0.80;;;0.60;;
22289;SDS011;11313;50.116;8.424;2023-12-20T11:16:48;0.73;;;0.55;;
22289;SDS011;11313;50.116;8.424;2023-12-20T11:19:14;1.08;;;0.70;;
22289;SDS011;11313;50.116;8.424;2023-12-20T11:21:40;1.00;;;0.60;;
22289;SDS011;11313;50.116;8.424;2023-12-20T11:24:06;1.58;;;0.85;;
22289;SDS011;11313;50.116;8.424;2023-12-20T11:26:31;1.25;;;0.70;;
22289;SDS011;11313;50.116;8.424;2023-12-20T11:32:44;0.90;;;0.60;;
22289;SDS011;11313;50.116;8.424;2023-12-20T11:34:53;0.93;;;0.70;;
22289;SDS011;11313;50.116;8.424;2023-12-20T11:37:20;0.88;;;0.60;;
22289;SDS011;11313;50.116;8.424;2023-12-20T11:39:54;1.30;;;0.70;;
22289;SDS011;11313;50.116;8.424;2023-12-20T11:42:21;1.70;;;0.80;;
22289;SDS011;11313;50.116;8.424;2023-12-20T11:44:46;1.15;;;0.60;;
22289;SDS011;11313;50.116;8.424;2023-12-20T11:47:12;0.60;;;0.60;;
22289;SDS011;11313;50.116;8.424;2023-12-20T11:49:39;0.85;;;0.60;;
22289;SDS011;11313;50.116;8.424;2023-12-20T11:52:05;0.80;;;0.70;;
22289;SDS011;11313;50.116;8.424;2023-12-20T11:54:30;0.90;;;0.50;;
22289;SDS011;11313;50.116;8.424;2023-12-20T11:56:56;0.70;;;0.60;;
22289;SDS011;11313;50.116;8.424;2023-12-20T11:59:22;0.70;;;0.60;;
22289;SDS011;11313;50.116;8.424;2023-12-20T12:01:48;0.80;;;0.70;;
22289;SDS011;11313;50.116;8.424;2023-12-20T12:04:15;0.88;;;0.60;;
22289;SDS011;11313;50.116;8.424;2023-12-20T12:06:42;1.15;;;0.70;;
22289;SDS011;11313;50.116;8.424;2023-12-20T12:09:08;1.67;;;0.80;;
22289;SDS011;11313;50.116;8.424;2023-12-20T12:11:33;0.70;;;0.50;;
22289;SDS011;11313;50.116;8.424;2023-12-20T12:13:59;1.02;;;0.60;;
22289;SDS011;11313;50.116;8.424;2023-12-20T12:16:25;0.63;;;0.60;;
22289;SDS011;11313;50.116;8.424;2023-12-20T12:18:55;0.93;;;0.70;;
22289;SDS011;11313;50.116;8.424;2023-12-20T12:21:21;1.02;;;0.60;;
22289;SDS011;11313;50.116;8.424;2023-12-20T12:23:47;0.90;;;0.65;;
22289;SDS011;11313;50.116;8.424;2023-12-20T12:26:13;0.77;;;0.57;;
22289;SDS011;11313;50.116;8.424;2023-12-20T12:28:41;1.40;;;0.70;;
22289;SDS011;11313;50.116;8.424;2023-12-20T12:31:07;1.17;;;0.63;;
22289;SDS011;11313;50.116;8.424;2023-12-20T12:33:34;0.60;;;0.50;;
22289;SDS011;11313;50.116;8.424;2023-12-20T12:36:00;1.25;;;0.50;;
22289;SDS011;11313;50.116;8.424;2023-12-20T12:38:26;0.98;;;0.68;;
22289;SDS011;11313;50.116;8.424;2023-12-20T12:40:52;0.98;;;0.43;;
22289;SDS011;11313;50.116;8.424;2023-12-20T12:43:19;0.60;;;0.55;;
22289;SDS011;11313;50.116;8.424;2023-12-20T12:45:45;0.50;;;0.50;;
22289;SDS011;11313;50.116;8.424;2023-12-20T12:48:10;1.30;;;0.70;;
22289;SDS011;11313;50.116;8.424;2023-12-20T12:50:36;1.15;;;0.80;;
22289;SDS011;11313;50.116;8.424;2023-12-20T12:53:01;0.77;;;0.60;;
22289;SDS011;11313;50.116;8.424;2023-12-20T12:55:27;0.85;;;0.60;;
22289;SDS011;11313;50.116;8.424;2023-12-20T12:57:53;0.82;;;0.50;;
22289;SDS011;11313;50.116;8.424;2023-12-20T13:00:19;0.98;;;0.60;;
22289;SDS011;11313;50.116;8.424;2023-12-20T13:02:44;1.33;;;0.70;;
22289;SDS011;11313;50.116;8.424;2023-12-20T13:05:10;0.90;;;0.52;;
22289;SDS011;11313;50.116;8.424;2023-12-20T13:07:35;0.45;;;0.40;;
22289;SDS011;11313;50.116;8.424;2023-12-20T13:10:02;4.78;;;0.60;;
22289;SDS011;11313;50.116;8.424;2023-12-20T13:12:29;0.47;;;0.40;;
22289;SDS011;11313;50.116;8.424;2023-12-20T13:14:54;1.33;;;0.70;;
22289;SDS011;11313;50.116;8.424;2023-12-20T13:17:20;1.05;;;0.60;;
22289;SDS011;11313;50.116;8.424;2023-12-20T13:19:45;1.15;;;0.52;;
22289;SDS011;11313;50.116;8.424;2023-12-20T13:22:11;0.55;;;0.50;;
22289;SDS011;11313;50.116;8.424;2023-12-20T13:24:37;1.88;;;0.50;;
22289;SDS011;11313;50.116;8.424;2023-12-20T13:27:02;1.23;;;0.52;;
22289;SDS011;11313;50.116;8.424;2023-12-20T13:29:28;0.50;;;0.50;;
22289;SDS011;11313;50.116;8.424;2023-12-20T13:31:53;0.82;;;0.45;;
22289;SDS011;11313;50.116;8.424;2023-12-20T13:34:19;0.50;;;0.45;;
22289;SDS011;11313;50.116;8.424;2023-12-20T13:36:45;0.70;;;0.50;;
22289;SDS011;11313;50.116;8.424;2023-12-20T13:39:12;0.80;;;0.50;;
22289;SDS011;11313;50.116;8.424;2023-12-20T13:41:38;0.98;;;0.57;;
22289;SDS011;11313;50.116;8.424;2023-12-20T13:44:04;1.55;;;0.50;;
22289;SDS011;11313;50.116;8.424;2023-12-20T13:46:30;0.73;;;0.50;;
22289;SDS011;11313;50.116;8.424;2023-12-20T13:48:56;0.45;;;0.43;;
22289;SDS011;11313;50.116;8.424;2023-12-20T13:51:21;1.00;;;0.50;;
22289;SDS011;11313;50.116;8.424;2023-12-20T13:53:47;0.50;;;0.50;;
22289;SDS011;11313;50.116;8.424;2023-12-20T13:56:13;1.17;;;0.70;;
22289;SDS011;11313;50.116;8.424;2023-12-20T13:58:39;1.05;;;0.50;;
22289;SDS011;11313;50.116;8.424;2023-12-20T14:01:06;0.85;;;0.70;;
22289;SDS011;11313;50.116;8.424;2023-12-20T14:03:32;0.57;;;0.50;;
22289;SDS011;11313;50.116;8.424;2023-12-20T14:05:58;0.70;;;0.40;;
22289;SDS011;11313;50.116;8.424;2023-12-20T14:08:24;0.68;;;0.50;;
22289;SDS011;11313;50.116;8.424;2023-12-20T14:10:51;0.90;;;0.60;;
22289;SDS011;11313;50.116;8.424;2023-12-20T14:13:17;0.95;;;0.65;;
22289;SDS011;11313;50.116;8.424;2023-12-20T14:15:43;0.60;;;0.50;;
22289;SDS011;11313;50.116;8.424;2023-12-20T14:18:09;0.90;;;0.60;;
22289;SDS011;11313;50.116;8.424;2023-12-20T14:20:35;1.67;;;0.60;;
22289;SDS011;11313;50.116;8.424;2023-12-20T14:23:03;2.08;;;0.60;;
22289;SDS011;11313;50.116;8.424;2023-12-20T14:25:29;0.63;;;0.50;;
22289;SDS011;11313;50.116;8.424;2023-12-20T14:27:56;0.40;;;0.40;;
22289;SDS011;11313;50.116;8.424;2023-12-20T14:30:21;0.60;;;0.40;;
22289;SDS011;11313;50.116;8.424;2023-12-20T14:32:47;0.93;;;0.50;;
22289;SDS011;11313;50.116;8.424;2023-12-20T14:35:13;0.75;;;0.50;;
22289;SDS011;11313;50.116;8.424;2023-12-20T14:37:39;0.73;;;0.50;;
22289;SDS011;11313;50.116;8.424;2023-12-20T14:40:09;0.75;;;0.50;;
22289;SDS011;11313;50.116;8.424;2023-12-20T14:45:01;0.55;;;0.45;;
22289;SDS011;11313;50.116;8.424;2023-12-20T14:47:27;1.63;;;0.60;;